sensor_id;sensor_type;location;lat;lon;timestamp;temperature;humidity
3550;DHT22;45572;48.804;8.330;2023-04-03T00:00:08;6.50;78.20
3550;DHT22;45572;48.804;8.330;2023-04-03T00:02:37;6.50;77.70
3550;DHT22;45572;48.804;8.330;2023-04-03T00:05:07;6.50;77.40
3550;DHT22;45572;48.804;8.330;2023-04-03T00:07:35;6.50;77.50
3550;DHT22;45572;48.804;8.330;2023-04-03T00:10:03;6.40;77.60
3550;DHT22;45572;48.804;8.330;2023-04-03T00:12:31;6.40;78.10
3550;DHT22;45572;48.804;8.330;2023-04-03T00:14:58;6.30;77.70
3550;DHT22;45572;48.804;8.330;2023-04-03T00:17:27;6.30;78.20
3550;DHT22;45572;48.804;8.330;2023-04-03T00:19:55;6.30;78.20
3550;DHT22;45572;48.804;8.330;2023-04-03T00:22:23;6.30;78.90
3550;DHT22;45572;48.804;8.330;2023-04-03T00:24:53;6.30;78.80
3550;DHT22;45572;48.804;8.330;2023-04-03T00:27:21;6.30;78.10
3550;DHT22;45572;48.804;8.330;2023-04-03T00:29:49;6.30;78.10
3550;DHT22;45572;48.804;8.330;2023-04-03T00:32:16;6.30;78.10
3550;DHT22;45572;48.804;8.330;2023-04-03T00:34:45;6.20;78.10
3550;DHT22;45572;48.804;8.330;2023-04-03T00:37:13;6.20;78.20
3550;DHT22;45572;48.804;8.330;2023-04-03T00:39:41;6.20;78.40
3550;DHT22;45572;48.804;8.330;2023-04-03T00:42:09;6.20;78.80
3550;DHT22;45572;48.804;8.330;2023-04-03T00:47:35;6.20;78.60
3550;DHT22;45572;48.804;8.330;2023-04-03T00:50:07;6.20;78.90
3550;DHT22;45572;48.804;8.330;2023-04-03T00:52:36;6.10;79.20
3550;DHT22;45572;48.804;8.330;2023-04-03T00:55:08;6.10;79.00
3550;DHT22;45572;48.804;8.330;2023-04-03T00:57:36;6.10;78.90
3550;DHT22;45572;48.804;8.330;2023-04-03T01:00:08;6.00;78.60
3550;DHT22;45572;48.804;8.330;2023-04-03T01:02:38;6.10;78.50
3550;DHT22;45572;48.804;8.330;2023-04-03T01:05:11;6.10;79.60
3550;DHT22;45572;48.804;8.330;2023-04-03T01:07:40;6.10;79.70
3550;DHT22;45572;48.804;8.330;2023-04-03T01:10:11;6.10;79.30
3550;DHT22;45572;48.804;8.330;2023-04-03T01:12:44;6.20;79.10
3550;DHT22;45572;48.804;8.330;2023-04-03T01:15:15;6.20;79.50
3550;DHT22;45572;48.804;8.330;2023-04-03T01:17:45;6.20;79.10
3550;DHT22;45572;48.804;8.330;2023-04-03T01:20:42;6.20;78.50
3550;DHT22;45572;48.804;8.330;2023-04-03T01:23:20;6.10;78.80
3550;DHT22;45572;48.804;8.330;2023-04-03T01:25:51;6.00;78.90
3550;DHT22;45572;48.804;8.330;2023-04-03T01:28:22;6.00;79.40
3550;DHT22;45572;48.804;8.330;2023-04-03T01:30:53;5.90;79.40
3550;DHT22;45572;48.804;8.330;2023-04-03T01:33:24;5.90;79.90
3550;DHT22;45572;48.804;8.330;2023-04-03T01:35:52;5.90;79.40
3550;DHT22;45572;48.804;8.330;2023-04-03T01:38:20;5.80;79.20
3550;DHT22;45572;48.804;8.330;2023-04-03T01:40:49;5.80;79.00
3550;DHT22;45572;48.804;8.330;2023-04-03T01:43:16;5.70;79.40
3550;DHT22;45572;48.804;8.330;2023-04-03T01:45:45;5.70;79.70
3550;DHT22;45572;48.804;8.330;2023-04-03T01:54:06;5.50;80.00
3550;DHT22;45572;48.804;8.330;2023-04-03T01:56:34;5.50;80.10
3550;DHT22;45572;48.804;8.330;2023-04-03T01:59:02;5.40;80.30
3550;DHT22;45572;48.804;8.330;2023-04-03T02:01:30;5.40;80.30
3550;DHT22;45572;48.804;8.330;2023-04-03T02:03:58;5.40;80.50
3550;DHT22;45572;48.804;8.330;2023-04-03T02:06:26;5.40;80.60
3550;DHT22;45572;48.804;8.330;2023-04-03T02:14:55;5.30;81.00
3550;DHT22;45572;48.804;8.330;2023-04-03T02:17:23;5.20;81.10
3550;DHT22;45572;48.804;8.330;2023-04-03T02:19:51;5.10;80.80
3550;DHT22;45572;48.804;8.330;2023-04-03T02:22:19;5.10;81.40
3550;DHT22;45572;48.804;8.330;2023-04-03T02:24:46;5.10;81.10
3550;DHT22;45572;48.804;8.330;2023-04-03T02:27:14;5.10;81.70
3550;DHT22;45572;48.804;8.330;2023-04-03T02:29:42;5.00;81.70
3550;DHT22;45572;48.804;8.330;2023-04-03T02:32:11;5.00;82.10
3550;DHT22;45572;48.804;8.330;2023-04-03T02:34:40;5.00;82.40
3550;DHT22;45572;48.804;8.330;2023-04-03T02:37:10;4.90;81.70
3550;DHT22;45572;48.804;8.330;2023-04-03T02:39:38;4.90;81.70
3550;DHT22;45572;48.804;8.330;2023-04-03T02:42:06;4.90;81.80
3550;DHT22;45572;48.804;8.330;2023-04-03T02:44:34;4.90;81.90
3550;DHT22;45572;48.804;8.330;2023-04-03T02:47:02;4.80;82.70
3550;DHT22;45572;48.804;8.330;2023-04-03T02:49:31;4.80;82.40
3550;DHT22;45572;48.804;8.330;2023-04-03T02:52:06;4.70;82.70
3550;DHT22;45572;48.804;8.330;2023-04-03T02:54:34;4.70;82.40
3550;DHT22;45572;48.804;8.330;2023-04-03T02:57:06;4.70;82.40
3550;DHT22;45572;48.804;8.330;2023-04-03T02:59:35;4.70;82.60
3550;DHT22;45572;48.804;8.330;2023-04-03T03:02:08;4.70;82.90
3550;DHT22;45572;48.804;8.330;2023-04-03T03:04:37;4.60;83.20
3550;DHT22;45572;48.804;8.330;2023-04-03T03:07:05;4.60;83.00
3550;DHT22;45572;48.804;8.330;2023-04-03T03:09:33;4.60;83.30
3550;DHT22;45572;48.804;8.330;2023-04-03T03:12:01;4.60;83.60
3550;DHT22;45572;48.804;8.330;2023-04-03T03:14:29;4.50;83.70
3550;DHT22;45572;48.804;8.330;2023-04-03T03:16:57;4.50;83.90
3550;DHT22;45572;48.804;8.330;2023-04-03T03:19:25;4.50;84.10
3550;DHT22;45572;48.804;8.330;2023-04-03T03:21:55;4.50;84.10
3550;DHT22;45572;48.804;8.330;2023-04-03T03:24:23;4.40;84.30
3550;DHT22;45572;48.804;8.330;2023-04-03T03:26:51;4.30;84.40
3550;DHT22;45572;48.804;8.330;2023-04-03T03:29:19;4.30;84.50
3550;DHT22;45572;48.804;8.330;2023-04-03T03:31:47;4.30;84.60
3550;DHT22;45572;48.804;8.330;2023-04-03T03:34:15;4.30;85.30
3550;DHT22;45572;48.804;8.330;2023-04-03T03:36:43;4.30;85.00
3550;DHT22;45572;48.804;8.330;2023-04-03T03:39:12;4.20;85.30
3550;DHT22;45572;48.804;8.330;2023-04-03T03:41:40;4.10;85.80
3550;DHT22;45572;48.804;8.330;2023-04-03T03:44:08;4.10;85.80
3550;DHT22;45572;48.804;8.330;2023-04-03T03:46:36;4.00;86.20
3550;DHT22;45572;48.804;8.330;2023-04-03T03:49:05;4.00;86.40
3550;DHT22;45572;48.804;8.330;2023-04-03T03:51:33;3.90;86.70
3550;DHT22;45572;48.804;8.330;2023-04-03T03:54:02;3.90;86.50
3550;DHT22;45572;48.804;8.330;2023-04-03T03:56:31;3.90;86.50
3550;DHT22;45572;48.804;8.330;2023-04-03T03:59:00;3.90;86.50
3550;DHT22;45572;48.804;8.330;2023-04-03T04:04:31;3.90;86.60
3550;DHT22;45572;48.804;8.330;2023-04-03T04:06:59;3.90;86.40
3550;DHT22;45572;48.804;8.330;2023-04-03T04:09:29;3.80;86.60
3550;DHT22;45572;48.804;8.330;2023-04-03T04:11:58;3.80;87.00
3550;DHT22;45572;48.804;8.330;2023-04-03T04:14:27;3.80;86.90
3550;DHT22;45572;48.804;8.330;2023-04-03T04:16:55;3.80;87.00
3550;DHT22;45572;48.804;8.330;2023-04-03T04:19:25;3.80;87.10
3550;DHT22;45572;48.804;8.330;2023-04-03T04:22:01;3.70;86.90
3550;DHT22;45572;48.804;8.330;2023-04-03T04:24:31;3.60;87.40
3550;DHT22;45572;48.804;8.330;2023-04-03T04:27:02;3.60;87.50
3550;DHT22;45572;48.804;8.330;2023-04-03T04:29:31;3.50;87.70
3550;DHT22;45572;48.804;8.330;2023-04-03T04:32:03;3.50;88.00
3550;DHT22;45572;48.804;8.330;2023-04-03T04:34:31;3.50;87.90
3550;DHT22;45572;48.804;8.330;2023-04-03T04:37:00;3.40;87.90
3550;DHT22;45572;48.804;8.330;2023-04-03T04:39:28;3.40;88.30
3550;DHT22;45572;48.804;8.330;2023-04-03T04:44:42;3.30;88.50
3550;DHT22;45572;48.804;8.330;2023-04-03T04:47:12;3.20;88.70
3550;DHT22;45572;48.804;8.330;2023-04-03T04:49:41;3.20;88.60
3550;DHT22;45572;48.804;8.330;2023-04-03T04:54:59;3.30;88.10
3550;DHT22;45572;48.804;8.330;2023-04-03T04:57:29;3.30;88.40
3550;DHT22;45572;48.804;8.330;2023-04-03T05:00:00;3.30;88.60
3550;DHT22;45572;48.804;8.330;2023-04-03T05:02:29;3.20;88.50
3550;DHT22;45572;48.804;8.330;2023-04-03T05:04:57;3.30;88.70
3550;DHT22;45572;48.804;8.330;2023-04-03T05:07:28;3.40;88.90
3550;DHT22;45572;48.804;8.330;2023-04-03T05:09:57;3.50;88.90
3550;DHT22;45572;48.804;8.330;2023-04-03T05:12:25;3.50;88.70
3550;DHT22;45572;48.804;8.330;2023-04-03T05:14:59;3.70;88.30
3550;DHT22;45572;48.804;8.330;2023-04-03T05:17:30;3.70;87.90
3550;DHT22;45572;48.804;8.330;2023-04-03T05:19:58;3.80;87.40
3550;DHT22;45572;48.804;8.330;2023-04-03T05:22:27;3.80;86.70
3550;DHT22;45572;48.804;8.330;2023-04-03T05:25:01;3.90;86.60
3550;DHT22;45572;48.804;8.330;2023-04-03T05:27:29;4.00;87.20
3550;DHT22;45572;48.804;8.330;2023-04-03T05:29:59;4.00;87.00
3550;DHT22;45572;48.804;8.330;2023-04-03T05:32:30;4.20;86.30
3550;DHT22;45572;48.804;8.330;2023-04-03T05:35:11;4.30;86.00
3550;DHT22;45572;48.804;8.330;2023-04-03T05:37:41;4.30;86.30
3550;DHT22;45572;48.804;8.330;2023-04-03T05:40:10;4.30;86.70
3550;DHT22;45572;48.804;8.330;2023-04-03T05:42:41;4.30;86.50
3550;DHT22;45572;48.804;8.330;2023-04-03T05:45:11;4.40;86.40
3550;DHT22;45572;48.804;8.330;2023-04-03T05:47:39;4.50;86.30
3550;DHT22;45572;48.804;8.330;2023-04-03T05:50:07;4.60;85.00
3550;DHT22;45572;48.804;8.330;2023-04-03T05:52:37;4.70;85.30
3550;DHT22;45572;48.804;8.330;2023-04-03T05:55:06;4.80;85.50
3550;DHT22;45572;48.804;8.330;2023-04-03T05:57:35;4.90;84.30
3550;DHT22;45572;48.804;8.330;2023-04-03T06:00:04;5.00;84.30
3550;DHT22;45572;48.804;8.330;2023-04-03T06:15:54;5.40;82.00
3550;DHT22;45572;48.804;8.330;2023-04-03T06:18:25;5.40;81.60
3550;DHT22;45572;48.804;8.330;2023-04-03T06:23:49;5.40;80.20
3550;DHT22;45572;48.804;8.330;2023-04-03T06:26:20;5.30;80.10
3550;DHT22;45572;48.804;8.330;2023-04-03T06:28:52;5.60;79.90
3550;DHT22;45572;48.804;8.330;2023-04-03T06:31:43;5.80;79.70
3550;DHT22;45572;48.804;8.330;2023-04-03T06:34:11;5.90;79.20
3550;DHT22;45572;48.804;8.330;2023-04-03T06:36:41;6.10;78.80
3550;DHT22;45572;48.804;8.330;2023-04-03T06:39:11;6.40;76.50
3550;DHT22;45572;48.804;8.330;2023-04-03T06:41:40;6.90;76.00
3550;DHT22;45572;48.804;8.330;2023-04-03T06:44:08;7.00;74.70
3550;DHT22;45572;48.804;8.330;2023-04-03T06:46:39;7.60;75.50
3550;DHT22;45572;48.804;8.330;2023-04-03T06:49:09;8.30;72.00
3550;DHT22;45572;48.804;8.330;2023-04-03T06:51:38;9.10;70.50
3550;DHT22;45572;48.804;8.330;2023-04-03T06:54:06;10.20;66.00
3550;DHT22;45572;48.804;8.330;2023-04-03T06:56:36;11.30;64.50
3550;DHT22;45572;48.804;8.330;2023-04-03T06:59:04;12.70;60.80
3550;DHT22;45572;48.804;8.330;2023-04-03T07:01:32;13.60;57.50
3550;DHT22;45572;48.804;8.330;2023-04-03T07:04:00;14.20;56.70
3550;DHT22;45572;48.804;8.330;2023-04-03T07:06:32;14.70;54.40
3550;DHT22;45572;48.804;8.330;2023-04-03T07:09:01;14.70;52.90
3550;DHT22;45572;48.804;8.330;2023-04-03T07:11:30;15.50;54.60
3550;DHT22;45572;48.804;8.330;2023-04-03T07:13:58;15.70;51.50
3550;DHT22;45572;48.804;8.330;2023-04-03T07:16:26;16.60;50.90
3550;DHT22;45572;48.804;8.330;2023-04-03T07:18:54;17.00;50.00
3550;DHT22;45572;48.804;8.330;2023-04-03T07:21:24;17.60;47.50
3550;DHT22;45572;48.804;8.330;2023-04-03T07:23:53;18.30;46.90
3550;DHT22;45572;48.804;8.330;2023-04-03T07:26:22;18.70;46.40
3550;DHT22;45572;48.804;8.330;2023-04-03T07:28:50;19.10;46.20
3550;DHT22;45572;48.804;8.330;2023-04-03T07:31:21;18.70;44.10
3550;DHT22;45572;48.804;8.330;2023-04-03T07:33:49;18.20;45.30
3550;DHT22;45572;48.804;8.330;2023-04-03T07:36:19;18.30;45.90
3550;DHT22;45572;48.804;8.330;2023-04-03T07:38:47;18.00;46.40
3550;DHT22;45572;48.804;8.330;2023-04-03T07:41:18;18.10;45.30
3550;DHT22;45572;48.804;8.330;2023-04-03T07:43:49;18.00;46.20
3550;DHT22;45572;48.804;8.330;2023-04-03T07:46:17;18.30;45.90
3550;DHT22;45572;48.804;8.330;2023-04-03T07:48:45;18.70;45.20
3550;DHT22;45572;48.804;8.330;2023-04-03T07:51:13;19.10;44.90
3550;DHT22;45572;48.804;8.330;2023-04-03T07:53:41;19.70;44.80
3550;DHT22;45572;48.804;8.330;2023-04-03T07:56:09;19.40;43.00
3550;DHT22;45572;48.804;8.330;2023-04-03T07:58:38;18.80;43.30
3550;DHT22;45572;48.804;8.330;2023-04-03T08:01:06;18.80;45.40
3550;DHT22;45572;48.804;8.330;2023-04-03T08:03:34;19.30;45.00
3550;DHT22;45572;48.804;8.330;2023-04-03T08:06:04;18.80;43.80
3550;DHT22;45572;48.804;8.330;2023-04-03T08:08:42;19.50;45.80
3550;DHT22;45572;48.804;8.330;2023-04-03T08:11:10;19.60;43.00
3550;DHT22;45572;48.804;8.330;2023-04-03T08:13:39;19.60;43.60
3550;DHT22;45572;48.804;8.330;2023-04-03T08:16:10;19.00;43.50
3550;DHT22;45572;48.804;8.330;2023-04-03T08:18:39;17.00;44.90
3550;DHT22;45572;48.804;8.330;2023-04-03T08:21:08;15.40;49.80
3550;DHT22;45572;48.804;8.330;2023-04-03T08:23:36;14.80;50.40
3550;DHT22;45572;48.804;8.330;2023-04-03T08:26:06;14.50;51.80
3550;DHT22;45572;48.804;8.330;2023-04-03T08:28:34;14.30;53.00
3550;DHT22;45572;48.804;8.330;2023-04-03T08:31:07;15.30;51.50
3550;DHT22;45572;48.804;8.330;2023-04-03T08:33:40;16.20;48.90
3550;DHT22;45572;48.804;8.330;2023-04-03T08:36:18;16.70;47.60
3550;DHT22;45572;48.804;8.330;2023-04-03T08:38:51;17.10;48.50
3550;DHT22;45572;48.804;8.330;2023-04-03T08:41:29;17.40;46.20
3550;DHT22;45572;48.804;8.330;2023-04-03T08:44:07;17.00;46.70
3550;DHT22;45572;48.804;8.330;2023-04-03T08:46:49;15.90;47.40
3550;DHT22;45572;48.804;8.330;2023-04-03T08:49:24;15.30;50.40
3550;DHT22;45572;48.804;8.330;2023-04-03T08:51:55;14.70;49.60
3550;DHT22;45572;48.804;8.330;2023-04-03T08:54:28;13.60;51.10
3550;DHT22;45572;48.804;8.330;2023-04-03T08:57:04;12.90;55.30
3550;DHT22;45572;48.804;8.330;2023-04-03T08:59:35;12.40;56.10
3550;DHT22;45572;48.804;8.330;2023-04-03T09:02:23;12.10;56.70
3550;DHT22;45572;48.804;8.330;2023-04-03T09:04:54;12.30;55.60
3550;DHT22;45572;48.804;8.330;2023-04-03T09:07:29;12.60;55.50
3550;DHT22;45572;48.804;8.330;2023-04-03T09:10:00;12.10;55.90
3550;DHT22;45572;48.804;8.330;2023-04-03T09:12:34;12.60;58.30
3550;DHT22;45572;48.804;8.330;2023-04-03T09:15:14;13.60;53.60
3550;DHT22;45572;48.804;8.330;2023-04-03T09:17:58;14.00;52.80
3550;DHT22;45572;48.804;8.330;2023-04-03T09:20:35;13.30;53.30
3550;DHT22;45572;48.804;8.330;2023-04-03T09:23:15;12.80;55.00
3550;DHT22;45572;48.804;8.330;2023-04-03T09:25:46;12.40;54.60
3550;DHT22;45572;48.804;8.330;2023-04-03T09:28:14;11.80;56.40
3550;DHT22;45572;48.804;8.330;2023-04-03T09:30:42;11.50;58.20
3550;DHT22;45572;48.804;8.330;2023-04-03T09:33:11;11.30;58.60
3550;DHT22;45572;48.804;8.330;2023-04-03T09:35:40;10.90;57.90
3550;DHT22;45572;48.804;8.330;2023-04-03T09:44:23;10.00;60.10
3550;DHT22;45572;48.804;8.330;2023-04-03T09:46:51;9.90;62.10
3550;DHT22;45572;48.804;8.330;2023-04-03T09:49:21;10.30;62.90
3550;DHT22;45572;48.804;8.330;2023-04-03T09:51:48;10.70;61.50
3550;DHT22;45572;48.804;8.330;2023-04-03T09:54:32;10.70;60.70
3550;DHT22;45572;48.804;8.330;2023-04-03T09:57:07;10.50;60.70
3550;DHT22;45572;48.804;8.330;2023-04-03T09:59:40;10.40;58.70
3550;DHT22;45572;48.804;8.330;2023-04-03T10:02:24;10.20;60.20
3550;DHT22;45572;48.804;8.330;2023-04-03T10:04:56;10.10;59.80
3550;DHT22;45572;48.804;8.330;2023-04-03T10:07:38;9.90;60.40
3550;DHT22;45572;48.804;8.330;2023-04-03T10:13:05;10.10;60.00
3550;DHT22;45572;48.804;8.330;2023-04-03T10:15:40;10.10;61.80
3550;DHT22;45572;48.804;8.330;2023-04-03T10:24:06;10.20;58.00
3550;DHT22;45572;48.804;8.330;2023-04-03T10:26:45;10.10;56.60
3550;DHT22;45572;48.804;8.330;2023-04-03T10:32:15;10.30;56.50
3550;DHT22;45572;48.804;8.330;2023-04-03T10:34:53;10.90;53.60
3550;DHT22;45572;48.804;8.330;2023-04-03T10:37:48;10.90;53.80
3550;DHT22;45572;48.804;8.330;2023-04-03T10:40:28;10.60;54.70
3550;DHT22;45572;48.804;8.330;2023-04-03T10:43:04;10.60;55.20
3550;DHT22;45572;48.804;8.330;2023-04-03T10:45:48;10.50;57.20
3550;DHT22;45572;48.804;8.330;2023-04-03T10:48:28;10.60;57.60
3550;DHT22;45572;48.804;8.330;2023-04-03T10:51:12;11.20;57.50
3550;DHT22;45572;48.804;8.330;2023-04-03T10:53:48;11.70;54.10
3550;DHT22;45572;48.804;8.330;2023-04-03T10:56:28;11.60;53.90
3550;DHT22;45572;48.804;8.330;2023-04-03T10:59:02;11.40;53.90
3550;DHT22;45572;48.804;8.330;2023-04-03T11:01:36;11.40;54.20
3550;DHT22;45572;48.804;8.330;2023-04-03T11:04:07;11.50;53.90
3550;DHT22;45572;48.804;8.330;2023-04-03T11:06:41;11.50;54.80
3550;DHT22;45572;48.804;8.330;2023-04-03T11:09:19;11.80;53.70
3550;DHT22;45572;48.804;8.330;2023-04-03T11:11:55;11.80;53.90
3550;DHT22;45572;48.804;8.330;2023-04-03T11:14:28;11.70;54.70
3550;DHT22;45572;48.804;8.330;2023-04-03T11:17:04;11.60;54.60
3550;DHT22;45572;48.804;8.330;2023-04-03T11:19:39;11.40;55.20
3550;DHT22;45572;48.804;8.330;2023-04-03T11:22:18;11.40;55.30
3550;DHT22;45572;48.804;8.330;2023-04-03T11:24:59;11.40;56.20
3550;DHT22;45572;48.804;8.330;2023-04-03T11:27:38;11.10;54.30
3550;DHT22;45572;48.804;8.330;2023-04-03T11:30:14;10.90;55.50
3550;DHT22;45572;48.804;8.330;2023-04-03T11:33:00;10.60;54.80
3550;DHT22;45572;48.804;8.330;2023-04-03T11:35:32;10.70;56.80
3550;DHT22;45572;48.804;8.330;2023-04-03T11:38:04;10.70;57.00
3550;DHT22;45572;48.804;8.330;2023-04-03T11:46:13;10.60;55.10
3550;DHT22;45572;48.804;8.330;2023-04-03T11:48:50;10.60;55.50
3550;DHT22;45572;48.804;8.330;2023-04-03T12:02:59;9.70;56.40
3550;DHT22;45572;48.804;8.330;2023-04-03T12:05:31;9.70;57.30
3550;DHT22;45572;48.804;8.330;2023-04-03T12:08:23;9.70;57.80
3550;DHT22;45572;48.804;8.330;2023-04-03T12:11:14;9.70;57.40
3550;DHT22;45572;48.804;8.330;2023-04-03T12:14:03;9.70;58.90
3550;DHT22;45572;48.804;8.330;2023-04-03T12:16:40;9.70;58.60
3550;DHT22;45572;48.804;8.330;2023-04-03T12:22:13;9.50;58.40
3550;DHT22;45572;48.804;8.330;2023-04-03T12:24:42;9.40;59.10
3550;DHT22;45572;48.804;8.330;2023-04-03T12:27:20;9.40;58.80
3550;DHT22;45572;48.804;8.330;2023-04-03T12:32:56;9.50;59.00
3550;DHT22;45572;48.804;8.330;2023-04-03T12:35:42;9.60;56.80
3550;DHT22;45572;48.804;8.330;2023-04-03T12:38:22;9.90;57.40
3550;DHT22;45572;48.804;8.330;2023-04-03T12:40:58;9.90;57.50
3550;DHT22;45572;48.804;8.330;2023-04-03T12:43:40;9.90;56.00
3550;DHT22;45572;48.804;8.330;2023-04-03T12:46:13;10.00;55.70
3550;DHT22;45572;48.804;8.330;2023-04-03T12:48:48;9.90;57.40
3550;DHT22;45572;48.804;8.330;2023-04-03T12:51:20;9.90;58.50
3550;DHT22;45572;48.804;8.330;2023-04-03T12:53:51;10.00;58.60
3550;DHT22;45572;48.804;8.330;2023-04-03T12:56:23;10.10;57.90
3550;DHT22;45572;48.804;8.330;2023-04-03T12:58:52;10.00;58.20
3550;DHT22;45572;48.804;8.330;2023-04-03T13:01:21;9.90;56.50
3550;DHT22;45572;48.804;8.330;2023-04-03T13:03:54;9.80;57.20
3550;DHT22;45572;48.804;8.330;2023-04-03T13:06:24;9.70;57.30
3550;DHT22;45572;48.804;8.330;2023-04-03T13:08:56;9.70;57.70
3550;DHT22;45572;48.804;8.330;2023-04-03T13:11:30;9.60;57.60
3550;DHT22;45572;48.804;8.330;2023-04-03T13:14:00;9.60;56.90
3550;DHT22;45572;48.804;8.330;2023-04-03T13:16:31;9.70;56.80
3550;DHT22;45572;48.804;8.330;2023-04-03T13:19:02;9.60;58.30
3550;DHT22;45572;48.804;8.330;2023-04-03T13:21:32;9.60;56.80
3550;DHT22;45572;48.804;8.330;2023-04-03T13:24:03;9.60;57.40
3550;DHT22;45572;48.804;8.330;2023-04-03T13:26:42;9.50;59.40
3550;DHT22;45572;48.804;8.330;2023-04-03T13:29:21;9.50;59.50
3550;DHT22;45572;48.804;8.330;2023-04-03T13:31:58;9.40;58.50
3550;DHT22;45572;48.804;8.330;2023-04-03T13:34:29;9.50;58.90
3550;DHT22;45572;48.804;8.330;2023-04-03T13:37:05;9.60;58.50
3550;DHT22;45572;48.804;8.330;2023-04-03T13:39:41;9.70;58.20
3550;DHT22;45572;48.804;8.330;2023-04-03T13:42:16;9.80;59.40
3550;DHT22;45572;48.804;8.330;2023-04-03T13:44:46;9.80;57.90
3550;DHT22;45572;48.804;8.330;2023-04-03T13:47:17;9.90;57.90
3550;DHT22;45572;48.804;8.330;2023-04-03T13:50:00;9.90;57.20
3550;DHT22;45572;48.804;8.330;2023-04-03T13:52:31;9.80;57.70
3550;DHT22;45572;48.804;8.330;2023-04-03T13:55:17;9.90;58.60
3550;DHT22;45572;48.804;8.330;2023-04-03T13:57:55;9.80;57.40
3550;DHT22;45572;48.804;8.330;2023-04-03T14:06:11;9.80;57.40
3550;DHT22;45572;48.804;8.330;2023-04-03T14:08:39;9.60;56.80
3550;DHT22;45572;48.804;8.330;2023-04-03T14:14:14;9.50;57.10
3550;DHT22;45572;48.804;8.330;2023-04-03T14:16:47;9.60;56.70
3550;DHT22;45572;48.804;8.330;2023-04-03T14:19:19;9.50;56.40
3550;DHT22;45572;48.804;8.330;2023-04-03T14:24:38;9.60;55.50
3550;DHT22;45572;48.804;8.330;2023-04-03T14:27:13;9.60;55.90
3550;DHT22;45572;48.804;8.330;2023-04-03T14:29:46;9.50;57.10
3550;DHT22;45572;48.804;8.330;2023-04-03T14:35:19;9.70;58.20
3550;DHT22;45572;48.804;8.330;2023-04-03T14:37:49;9.70;58.30
3550;DHT22;45572;48.804;8.330;2023-04-03T14:46:04;10.30;57.90
3550;DHT22;45572;48.804;8.330;2023-04-03T14:48:36;10.30;55.20
3550;DHT22;45572;48.804;8.330;2023-04-03T14:57:00;10.10;54.00
3550;DHT22;45572;48.804;8.330;2023-04-03T14:59:29;9.90;54.70
3550;DHT22;45572;48.804;8.330;2023-04-03T15:02:02;9.90;55.00
3550;DHT22;45572;48.804;8.330;2023-04-03T15:04:37;9.80;54.80
3550;DHT22;45572;48.804;8.330;2023-04-03T15:07:07;9.80;56.00
3550;DHT22;45572;48.804;8.330;2023-04-03T15:09:35;9.70;56.70
3550;DHT22;45572;48.804;8.330;2023-04-03T15:12:04;9.80;58.80
3550;DHT22;45572;48.804;8.330;2023-04-03T15:14:32;9.90;58.60
3550;DHT22;45572;48.804;8.330;2023-04-03T15:17:15;9.90;58.40
3550;DHT22;45572;48.804;8.330;2023-04-03T15:19:45;9.80;55.70
3550;DHT22;45572;48.804;8.330;2023-04-03T15:22:15;9.80;55.40
3550;DHT22;45572;48.804;8.330;2023-04-03T15:24:46;9.80;55.40
3550;DHT22;45572;48.804;8.330;2023-04-03T15:27:14;9.90;56.60
3550;DHT22;45572;48.804;8.330;2023-04-03T15:29:44;9.90;56.20
3550;DHT22;45572;48.804;8.330;2023-04-03T15:32:13;9.90;55.60
3550;DHT22;45572;48.804;8.330;2023-04-03T15:34:41;9.90;55.40
3550;DHT22;45572;48.804;8.330;2023-04-03T15:37:09;9.90;55.30
3550;DHT22;45572;48.804;8.330;2023-04-03T15:39:36;10.00;55.60
3550;DHT22;45572;48.804;8.330;2023-04-03T15:42:06;10.00;56.40
3550;DHT22;45572;48.804;8.330;2023-04-03T15:44:37;9.90;55.10
3550;DHT22;45572;48.804;8.330;2023-04-03T15:47:05;9.80;56.20
3550;DHT22;45572;48.804;8.330;2023-04-03T15:49:38;9.80;57.10
3550;DHT22;45572;48.804;8.330;2023-04-03T15:52:08;9.80;56.30
3550;DHT22;45572;48.804;8.330;2023-04-03T15:54:36;9.90;55.90
3550;DHT22;45572;48.804;8.330;2023-04-03T15:57:04;9.90;56.60
3550;DHT22;45572;48.804;8.330;2023-04-03T15:59:31;10.00;56.30
3550;DHT22;45572;48.804;8.330;2023-04-03T16:02:01;10.00;54.90
3550;DHT22;45572;48.804;8.330;2023-04-03T16:04:32;10.00;54.70
3550;DHT22;45572;48.804;8.330;2023-04-03T16:07:08;9.90;55.90
3550;DHT22;45572;48.804;8.330;2023-04-03T16:09:36;9.70;55.30
3550;DHT22;45572;48.804;8.330;2023-04-03T16:12:04;9.60;55.80
3550;DHT22;45572;48.804;8.330;2023-04-03T16:14:32;9.70;54.60
3550;DHT22;45572;48.804;8.330;2023-04-03T16:17:00;9.70;54.60
3550;DHT22;45572;48.804;8.330;2023-04-03T16:19:28;9.60;55.00
3550;DHT22;45572;48.804;8.330;2023-04-03T16:21:57;9.50;54.80
3550;DHT22;45572;48.804;8.330;2023-04-03T16:24:26;9.40;55.70
3550;DHT22;45572;48.804;8.330;2023-04-03T16:26:55;9.50;56.40
3550;DHT22;45572;48.804;8.330;2023-04-03T16:29:23;9.50;55.40
3550;DHT22;45572;48.804;8.330;2023-04-03T16:31:52;9.50;54.90
3550;DHT22;45572;48.804;8.330;2023-04-03T16:34:20;9.40;54.20
3550;DHT22;45572;48.804;8.330;2023-04-03T16:36:48;9.50;53.20
3550;DHT22;45572;48.804;8.330;2023-04-03T16:39:16;9.40;52.50
3550;DHT22;45572;48.804;8.330;2023-04-03T16:41:45;9.30;53.40
3550;DHT22;45572;48.804;8.330;2023-04-03T16:44:13;9.20;54.00
3550;DHT22;45572;48.804;8.330;2023-04-03T16:46:41;9.20;53.90
3550;DHT22;45572;48.804;8.330;2023-04-03T16:49:10;9.10;54.40
3550;DHT22;45572;48.804;8.330;2023-04-03T16:51:38;9.10;54.70
3550;DHT22;45572;48.804;8.330;2023-04-03T16:54:06;9.10;53.10
3550;DHT22;45572;48.804;8.330;2023-04-03T16:56:36;9.00;54.20
3550;DHT22;45572;48.804;8.330;2023-04-03T16:59:06;9.00;53.80
3550;DHT22;45572;48.804;8.330;2023-04-03T17:01:34;9.00;53.90
3550;DHT22;45572;48.804;8.330;2023-04-03T17:04:02;8.90;52.40
3550;DHT22;45572;48.804;8.330;2023-04-03T17:06:30;8.90;53.90
3550;DHT22;45572;48.804;8.330;2023-04-03T17:08:58;8.90;53.90
3550;DHT22;45572;48.804;8.330;2023-04-03T17:11:27;8.80;54.10
3550;DHT22;45572;48.804;8.330;2023-04-03T17:13:55;8.80;54.60
3550;DHT22;45572;48.804;8.330;2023-04-03T17:16:24;8.70;54.80
3550;DHT22;45572;48.804;8.330;2023-04-03T17:18:53;8.60;52.60
3550;DHT22;45572;48.804;8.330;2023-04-03T17:21:22;8.70;53.70
3550;DHT22;45572;48.804;8.330;2023-04-03T17:23:53;8.60;52.40
3550;DHT22;45572;48.804;8.330;2023-04-03T17:26:23;8.60;54.40
3550;DHT22;45572;48.804;8.330;2023-04-03T17:28:52;8.60;53.00
3550;DHT22;45572;48.804;8.330;2023-04-03T17:31:20;8.50;52.50
3550;DHT22;45572;48.804;8.330;2023-04-03T17:33:49;8.50;52.80
3550;DHT22;45572;48.804;8.330;2023-04-03T17:36:16;8.50;55.20
3550;DHT22;45572;48.804;8.330;2023-04-03T17:38:44;8.50;55.60
3550;DHT22;45572;48.804;8.330;2023-04-03T17:41:13;8.50;54.60
3550;DHT22;45572;48.804;8.330;2023-04-03T17:43:42;8.50;55.30
3550;DHT22;45572;48.804;8.330;2023-04-03T17:46:10;8.50;55.60
3550;DHT22;45572;48.804;8.330;2023-04-03T17:48:40;8.40;55.50
3550;DHT22;45572;48.804;8.330;2023-04-03T17:51:11;8.40;55.60
3550;DHT22;45572;48.804;8.330;2023-04-03T17:59:39;8.40;56.70
3550;DHT22;45572;48.804;8.330;2023-04-03T18:02:07;8.40;56.70
3550;DHT22;45572;48.804;8.330;2023-04-03T18:07:34;8.50;56.30
3550;DHT22;45572;48.804;8.330;2023-04-03T18:10:03;8.40;57.50
3550;DHT22;45572;48.804;8.330;2023-04-03T18:12:31;8.40;57.60
3550;DHT22;45572;48.804;8.330;2023-04-03T18:14:59;8.30;58.50
3550;DHT22;45572;48.804;8.330;2023-04-03T18:17:27;8.30;57.90